Weather


ICAO METAR
KAPA KAPA 211128Z 04007KT 360V070 3/4SM -SN BR BKN004 OVC009 M01/M02 A3017 RMK AO2 SFC VIS 1 P0002 T10111022
KASE KASE 211101Z AUTO 36003KT 10SM OVC015 M01/M02 A3002 RMK AO2 T10061022
KBJC KBJC 211135Z AUTO 33003KT 4SM -RA BKN005 OVC011 00/00 A3019 RMK AO2
KBKF KBKF 211123Z 31002KT 2SM -SN BR BKN005 OVC007 M01/M01 A3018 RMK AO2A SLP233
KCFO KCFO 211135Z AUTO 00000KT 4SM -SN SCT005 BKN009 OVC040 01/00 A3019 RMK AO2 T00050000
KCOS KCOS 211129Z 00000KT 1SM R17L/5500VP6000FT -SN BR VV009 M01/M02 A3017 RMK AO2 P0003 T10061022 $
KCPR KCPR 211053Z 34005KT 10SM FEW027 OVC085 M01/M03 A3017 RMK AO2 SLP229 T10061028
KCYS KCYS 211053Z AUTO 26004KT 10SM CLR M04/M06 A3016 RMK AO2 SLP234 T10391061
KDEN KDEN 211134Z 02004KT 3SM -SN BR SCT006 SCT011 OVC036 00/M01 A3018 RMK AO2 P0000 T00001006 $
KEGE KEGE 211142Z AUTO VRB03KT 9SM -SN OVC011 M01/M02 A3011 RMK AO2 CIG 006V014 P0000
KFCS KFCS 211058Z 01005KT 1SM SN OVC007 M01/M01 A3016 RMK AO2A CIG 005V007 SLP261 T10121013 PWINO $
KFMN KFMN 211053Z AUTO 24005KT 10SM OVC110 10/M03 A2994 RMK AO2 SLP091 T01001028
KFNL KFNL 211056Z 04005KT 10SM SCT045 OVC055 02/M02 A3020 RMK AO2 SLP234 T00171017 FZRANO
KGJT KGJT 211053Z AUTO 00000KT 10SM CLR 02/M04 A3003 RMK AO2 SLP154 T00171044
KGUR KGUR 211058Z AUTO 28006KT 10SM SCT042 OVC055 01/M01 A3018 RMK AO2 SLP255 T00101011
KPUB KPUB 211130Z AUTO 26003KT 1 1/2SM -SN BR FEW004 OVC015 01/00 A3019 RMK AO2 P0002 T00060000
KRAP KRAP 211052Z AUTO 35008KT 10SM UP SCT019 BKN037 OVC070 02/01 A3016 RMK AO2 RAE04B51E52UPB52 SLP231 P0000 T00170006
KRCA KRCA 211112Z 35008KT 10SM FEW013 FEW019 SCT026 BKN033 BKN065 01/M01 A3013 RMK AO2A SLP229 $

Surface Data
Click here.

This is a composite map contain the following analyses: radar summary (color filled areas), surface data plot (composite station model), frontal locations (in various bold lines) and pressure contours (in thin blue lines).